Time;durP1;ratioP1;P1;durP2;ratioP2;P2;SDS_P1;SDS_P2;PMS_P1;PMS_P2;Temp;Humidity;BMP_temperature;BMP_pressure;BME280_temperature;BME280_humidity;BME280_pressure;Samples;Min_cycle;Max_cycle;Signal;HPM_P1;HPM_P2
2021/08/19 00:00:29;;;;;;;4.30;1.30;;;;;;;19.77;60.43;97902.31;8386159;28;20214;-84
2021/08/19 00:04:33;;;;;;;1.40;1.30;;;;;;;19.77;60.64;97910.19;8386604;28;20287;-83
2021/08/19 00:08:36;;;;;;;1.70;1.20;;;;;;;19.80;60.62;97904.66;8386738;28;20200;-85
2021/08/19 00:12:39;;;;;;;2.10;1.30;;;;;;;19.69;60.99;97897.66;8386682;28;20211;-86
2021/08/19 00:16:42;;;;;;;1.20;1.10;;;;;;;19.83;60.81;97901.78;8387008;28;20199;-86
2021/08/19 00:20:46;;;;;;;1.20;1.10;;;;;;;19.78;60.56;97893.44;8386553;28;20389;-86
2021/08/19 00:24:49;;;;;;;1.83;1.20;;;;;;;19.80;60.60;97896.78;8386086;28;20474;-85
2021/08/19 00:28:51;;;;;;;1.37;1.00;;;;;;;19.81;60.60;97890.56;8386294;28;20202;-84
2021/08/19 00:32:55;;;;;;;1.20;1.07;;;;;;;19.79;60.83;97890.69;8386076;28;20204;-84
2021/08/19 00:36:59;;;;;;;2.17;1.30;;;;;;;19.84;60.53;97887.69;8386007;28;20517;-84
2021/08/19 00:41:02;;;;;;;2.37;1.43;;;;;;;19.69;61.38;97874.00;8385958;28;20233;-88
2021/08/19 00:45:07;;;;;;;2.27;1.50;;;;;;;19.73;61.25;97878.91;8386145;28;20214;-87
2021/08/19 00:49:12;;;;;;;2.17;1.40;;;;;;;19.62;61.43;97878.91;8386021;28;20205;-87
2021/08/19 00:53:18;;;;;;;1.43;1.20;;;;;;;19.73;61.11;97868.38;8385702;28;20199;-88
2021/08/19 00:57:21;;;;;;;2.00;1.33;;;;;;;19.73;61.08;97870.19;8385608;28;20206;-87
2021/08/19 01:01:24;;;;;;;2.20;1.40;;;;;;;19.71;61.28;97865.03;8385355;28;20225;-86
2021/08/19 01:05:28;;;;;;;2.57;1.20;;;;;;;19.72;61.02;97863.25;8385425;28;20553;-86
2021/08/19 01:09:32;;;;;;;1.67;1.27;;;;;;;19.75;60.85;97865.63;8385054;28;20219;-87
2021/08/19 01:13:36;;;;;;;1.43;1.33;;;;;;;19.63;61.30;97862.22;8385052;28;20205;-86
2021/08/19 01:17:39;;;;;;;1.40;1.23;;;;;;;19.64;61.19;97865.66;8384866;28;20483;-86
2021/08/19 01:21:42;;;;;;;2.50;1.40;;;;;;;19.69;61.21;97859.06;8385001;28;20415;-87
2021/08/19 01:25:46;;;;;;;1.33;1.20;;;;;;;19.67;61.56;97857.53;8384627;28;20207;-86
2021/08/19 01:29:51;;;;;;;1.83;1.53;;;;;;;19.57;61.60;97859.25;8384499;28;20215;-86
2021/08/19 01:33:54;;;;;;;1.27;1.17;;;;;;;19.69;61.30;97856.44;8384816;28;20203;-86
2021/08/19 01:37:57;;;;;;;3.57;1.50;;;;;;;19.65;61.73;97856.84;8383703;28;20240;-86
2021/08/19 01:42:00;;;;;;;1.53;1.43;;;;;;;19.56;62.01;97852.34;8383699;28;20231;-87
2021/08/19 01:46:05;;;;;;;3.50;1.50;;;;;;;19.54;61.76;97858.53;8383684;28;20201;-86
2021/08/19 01:50:08;;;;;;;2.50;1.60;;;;;;;19.58;61.84;97858.31;8384007;28;20207;-87
2021/08/19 01:54:11;;;;;;;2.37;1.60;;;;;;;19.56;61.96;97862.84;8383906;28;20203;-87
2021/08/19 01:58:14;;;;;;;1.50;1.40;;;;;;;19.54;62.06;97857.72;8385012;28;20207;-86
2021/08/19 02:02:18;;;;;;;2.53;1.40;;;;;;;19.48;61.87;97848.56;8391789;28;20224;-88
2021/08/19 02:06:21;;;;;;;1.90;1.63;;;;;;;19.51;62.29;97857.97;8384809;28;20290;-87
2021/08/19 02:10:24;;;;;;;1.53;1.40;;;;;;;19.54;61.83;97855.09;8383321;28;20209;-87
2021/08/19 02:14:27;;;;;;;2.93;1.60;;;;;;;19.48;61.99;97856.44;8383485;28;20204;-87
2021/08/19 02:18:31;;;;;;;2.43;1.90;;;;;;;19.36;62.49;97856.59;8383054;28;20203;-85
2021/08/19 02:22:34;;;;;;;2.40;1.60;;;;;;;19.44;62.11;97857.66;8382875;28;20232;-85
2021/08/19 02:26:37;;;;;;;2.23;1.83;;;;;;;19.42;62.33;97861.34;8382872;28;20200;-86
2021/08/19 02:30:39;;;;;;;2.43;1.80;;;;;;;19.35;62.44;97855.78;8383000;28;20207;-87
2021/08/19 02:34:44;;;;;;;2.37;1.97;;;;;;;19.40;62.01;97855.38;8382608;28;20210;-86
2021/08/19 02:38:46;;;;;;;3.27;2.10;;;;;;;19.44;62.19;97860.28;8382613;28;20227;-87
2021/08/19 02:42:49;;;;;;;2.10;1.87;;;;;;;19.45;61.98;97853.22;8382333;28;20227;-84
2021/08/19 02:46:53;;;;;;;1.93;1.83;;;;;;;19.30;62.65;97856.13;8382382;28;20314;-88
2021/08/19 02:50:57;;;;;;;2.77;1.87;;;;;;;19.27;62.97;97855.59;8382487;28;20283;-87
2021/08/19 02:54:59;;;;;;;2.90;2.07;;;;;;;19.31;62.81;97852.56;8382242;28;20204;-87
2021/08/19 02:59:02;;;;;;;2.43;1.97;;;;;;;19.25;62.66;97853.06;8382356;28;20199;-86
2021/08/19 03:03:05;;;;;;;1.83;1.70;;;;;;;19.31;62.69;97843.88;8381930;28;20228;-85
2021/08/19 03:07:11;;;;;;;3.27;2.00;;;;;;;19.33;62.77;97847.19;8382135;28;20325;-88
2021/08/19 03:11:14;;;;;;;4.07;1.90;;;;;;;19.30;62.32;97843.00;8386217;28;20200;-89
2021/08/19 03:15:17;;;;;;;4.00;1.90;;;;;;;19.30;62.64;97839.56;8389041;28;20208;-89
2021/08/19 03:19:20;;;;;;;2.90;2.00;;;;;;;19.11;63.34;97846.34;8389225;28;20203;-90
2021/08/19 03:23:24;;;;;;;3.10;2.00;;;;;;;19.29;62.72;97840.53;8388974;28;20223;-88
2021/08/19 03:27:29;;;;;;;2.20;1.90;;;;;;;19.31;62.62;97843.88;8388763;28;20491;-88
2021/08/19 03:31:31;;;;;;;2.80;2.00;;;;;;;19.25;63.00;97847.00;8388565;28;20208;-87
2021/08/19 03:35:34;;;;;;;2.67;2.00;;;;;;;19.24;62.93;97847.94;8388510;28;20208;-89
2021/08/19 03:39:38;;;;;;;2.70;2.10;;;;;;;19.20;62.90;97846.53;8388955;28;20569;-88
2021/08/19 03:43:41;;;;;;;4.63;2.20;;;;;;;19.25;62.78;97839.13;8391883;28;20227;-91
2021/08/19 03:47:44;;;;;;;5.77;2.60;;;;;;;19.16;62.83;97847.75;8397821;28;20204;-91
2021/08/19 03:51:47;;;;;;;3.13;2.27;;;;;;;19.21;62.75;97846.41;8400359;28;20204;-91
2021/08/19 03:55:51;;;;;;;3.47;2.60;;;;;;;19.25;62.81;97847.81;8391028;28;20200;-86
2021/08/19 03:59:54;;;;;;;3.27;2.60;;;;;;;19.20;62.55;97846.53;8387291;28;20200;-86
2021/08/19 04:03:57;;;;;;;2.73;2.40;;;;;;;19.36;62.21;97853.97;8386947;28;20542;-86
2021/08/19 04:07:59;;;;;;;2.53;2.30;;;;;;;19.38;62.24;97854.69;8387194;28;20200;-86
2021/08/19 04:12:04;;;;;;;3.53;2.60;;;;;;;19.32;62.22;97854.25;8388038;28;20200;-88
2021/08/19 04:16:07;;;;;;;3.20;2.37;;;;;;;19.36;62.26;97856.59;8387844;28;20499;-89
2021/08/19 04:20:11;;;;;;;4.10;3.27;;;;;;;19.17;62.72;97858.09;8387670;28;20281;-89
2021/08/19 04:24:14;;;;;;;3.50;2.70;;;;;;;19.28;62.39;97854.59;8387381;28;20333;-87
2021/08/19 04:28:18;;;;;;;3.97;3.03;;;;;;;19.25;62.52;97855.69;8387304;28;20211;-87
2021/08/19 04:32:21;;;;;;;4.80;3.33;;;;;;;19.24;62.52;97861.06;8386787;28;20522;-87
2021/08/19 04:36:24;;;;;;;3.90;3.00;;;;;;;19.27;62.20;97866.09;8386477;28;20208;-86
2021/08/19 04:40:27;;;;;;;3.87;3.40;;;;;;;19.35;62.08;97855.78;8386116;28;20235;-85
2021/08/19 04:44:31;;;;;;;3.43;3.10;;;;;;;19.33;62.01;97857.69;8386510;28;20235;-85
2021/08/19 04:48:34;;;;;;;3.40;2.97;;;;;;;19.36;61.86;97856.59;8385796;28;20200;-85
2021/08/19 04:52:36;;;;;;;4.37;3.37;;;;;;;19.39;61.94;97862.44;8385873;28;20387;-85
2021/08/19 04:56:39;;;;;;;2.90;2.60;;;;;;;19.42;61.59;97858.72;8384499;28;20506;-85
2021/08/19 05:00:43;;;;;;;3.63;3.10;;;;;;;19.30;61.75;97858.75;8385503;28;20287;-84
2021/08/19 05:04:46;;;;;;;3.20;3.00;;;;;;;19.38;61.42;97859.94;8385013;28;20268;-84
2021/08/19 05:08:49;;;;;;;3.13;2.80;;;;;;;19.30;61.99;97865.81;8360547;28;20366;-85
2021/08/19 05:12:52;;;;;;;3.67;3.00;;;;;;;19.43;61.42;97861.22;8352307;28;20212;-86
2021/08/19 05:16:57;;;;;;;2.73;2.53;;;;;;;19.46;61.20;97863.59;8352537;28;20200;-86
2021/08/19 05:21:00;;;;;;;3.17;2.90;;;;;;;19.37;61.60;97866.97;8352512;28;20204;-84
2021/08/19 05:25:03;;;;;;;4.10;3.00;;;;;;;19.39;61.98;97861.63;8352069;28;20235;-84
2021/08/19 05:29:05;;;;;;;3.20;2.87;;;;;;;19.40;62.05;97865.88;8352033;28;20223;-84
2021/08/19 05:33:09;;;;;;;3.60;2.73;;;;;;;19.47;61.63;97865.25;8350994;28;20391;-84
2021/08/19 05:37:12;;;;;;;3.07;2.60;;;;;;;19.55;61.47;97856.75;8351621;28;20200;-83
2021/08/19 05:41:15;;;;;;;2.90;2.70;;;;;;;19.47;61.94;97865.25;8351488;28;20246;-83
2021/08/19 05:45:18;;;;;;;3.07;2.77;;;;;;;19.50;61.87;97867.63;8351837;28;20228;-83
2021/08/19 05:49:22;;;;;;;4.30;2.60;;;;;;;19.52;62.36;97870.16;8351330;28;20200;-83
2021/08/19 05:53:25;;;;;;;3.83;2.70;;;;;;;19.52;61.93;97881.47;8350877;28;20204;-82
2021/08/19 05:57:27;;;;;;;2.83;2.63;;;;;;;19.47;61.75;97882.81;8381290;28;20200;-82
2021/08/19 06:01:30;;;;;;;2.80;2.33;;;;;;;19.57;61.73;97882.88;8383739;28;20223;-81
2021/08/19 06:05:38;;;;;;;5.03;2.70;;;;;;;19.65;61.75;97889.19;8383707;28;20240;-82
2021/08/19 06:09:41;;;;;;;3.70;3.10;;;;;;;19.58;62.00;97890.66;8383788;28;20208;-82
2021/08/19 06:13:43;;;;;;;6.53;3.10;;;;;;;19.58;61.95;97893.28;8383231;28;20204;-83
2021/08/19 06:17:46;;;;;;;3.10;2.70;;;;;;;19.56;62.22;97897.81;8383521;28;20206;-82
2021/08/19 06:21:50;;;;;;;3.03;2.73;;;;;;;19.69;61.60;97898.47;8383101;28;20211;-82
2021/08/19 06:25:53;;;;;;;3.40;2.87;;;;;;;19.70;61.63;97894.03;8383399;28;20414;-83
2021/08/19 06:29:56;;;;;;;6.67;3.23;;;;;;;19.77;61.49;97899.66;8383211;28;20203;-83
2021/08/19 06:33:59;;;;;;;4.07;2.93;;;;;;;19.81;61.38;97898.44;8382958;28;20203;-84
2021/08/19 06:38:03;;;;;;;3.70;2.80;;;;;;;19.84;61.40;97893.78;8383681;28;20250;-86
2021/08/19 06:42:06;;;;;;;3.40;2.80;;;;;;;19.96;61.03;97898.97;8383543;28;20201;-86
2021/08/19 06:46:08;;;;;;;4.07;3.00;;;;;;;20.02;60.75;97903.69;8382640;28;20236;-86
2021/08/19 06:50:12;;;;;;;3.60;3.13;;;;;;;20.14;60.75;97901.84;8385797;28;20363;-84
2021/08/19 06:54:16;;;;;;;4.27;3.17;;;;;;;20.16;60.09;97899.91;8382460;28;20206;-85
2021/08/19 06:58:19;;;;;;;4.07;2.60;;;;;;;20.23;60.34;97904.50;8382574;28;20227;-84
2021/08/19 07:02:22;;;;;;;4.03;2.17;;;;;;;20.31;60.11;97906.47;8382784;28;20206;-83
2021/08/19 07:06:25;;;;;;;8.87;2.90;;;;;;;20.27;60.59;97907.72;8382255;28;20232;-83
2021/08/19 07:10:29;;;;;;;4.40;2.80;;;;;;;20.41;59.97;97910.00;8382751;28;20207;-84
2021/08/19 07:14:32;;;;;;;3.80;3.33;;;;;;;20.40;59.83;97907.50;8382431;28;20210;-83
2021/08/19 07:18:34;;;;;;;11.10;3.60;;;;;;;20.41;59.64;97909.16;8382516;28;20495;-86
2021/08/19 07:22:37;;;;;;;5.57;3.53;;;;;;;20.42;59.85;97902.94;8382277;28;20203;-84
2021/08/19 07:26:41;;;;;;;7.67;3.83;;;;;;;20.42;59.90;97909.03;8381953;28;20234;-84
2021/08/19 07:30:44;;;;;;;6.37;3.50;;;;;;;20.56;58.74;97902.59;8382220;28;20200;-81
2021/08/19 07:34:47;;;;;;;8.40;3.80;;;;;;;20.64;59.32;97912.50;8382080;28;20212;-84
2021/08/19 07:38:50;;;;;;;5.87;3.93;;;;;;;20.46;59.84;97923.59;8365554;28;20239;-84
2021/08/19 07:42:55;;;;;;;21.50;4.13;;;;;;;20.64;60.22;97917.75;8367118;28;20221;-85
2021/08/19 07:46:57;;;;;;;30.27;4.47;;;;;;;20.70;60.27;97919.84;8380199;28;20219;-80
2021/08/19 07:51:00;;;;;;;5.40;3.37;;;;;;;20.46;60.55;97926.22;8381481;28;20200;-84
2021/08/19 07:55:03;;;;;;;3.87;3.10;;;;;;;20.46;59.58;97922.75;8381448;28;20216;-84
2021/08/19 07:59:07;;;;;;;5.43;3.50;;;;;;;20.53;59.60;97909.94;8387376;28;20200;-84
2021/08/19 08:03:10;;;;;;;5.20;3.50;;;;;;;20.63;59.19;97914.28;8387248;28;20223;-84
2021/08/19 08:07:13;;;;;;;3.67;2.80;;;;;;;20.86;58.86;97914.06;8387027;28;20251;-84
2021/08/19 08:11:16;;;;;;;7.00;2.50;;;;;;;21.09;58.15;97922.59;8386981;28;20207;-84
2021/08/19 08:15:20;;;;;;;3.03;2.00;;;;;;;20.98;56.65;97920.91;8387053;28;20207;-83
2021/08/19 08:19:23;;;;;;;4.87;1.90;;;;;;;20.97;56.86;97913.16;8386666;28;20204;-84
2021/08/19 08:23:28;;;;;;;2.50;1.80;;;;;;;20.96;57.49;97912.31;8386883;28;20207;-83
2021/08/19 08:27:30;;;;;;;3.10;2.03;;;;;;;20.61;59.68;97931.16;8386604;28;20527;-84
2021/08/19 08:31:34;;;;;;;3.83;2.60;;;;;;;20.35;62.43;97936.00;8386738;28;20484;-83
2021/08/19 08:35:38;;;;;;;4.07;2.47;;;;;;;20.43;63.47;97938.81;8386276;28;20210;-84
2021/08/19 08:39:40;;;;;;;2.80;2.37;;;;;;;20.51;62.79;97939.81;8386498;28;20235;-84
2021/08/19 08:43:44;;;;;;;3.23;2.23;;;;;;;20.62;61.93;97941.56;8386398;28;20200;-84
2021/08/19 08:47:48;;;;;;;2.93;2.10;;;;;;;20.96;61.35;97943.06;8386169;28;20201;-83
2021/08/19 08:51:57;;;;;;;2.90;2.20;;;;;;;21.29;60.48;97939.25;8385975;28;20216;-83
2021/08/19 08:56:00;;;;;;;2.37;2.17;;;;;;;21.60;60.26;97939.19;8385890;28;20209;-83
2021/08/19 09:00:04;;;;;;;2.77;2.33;;;;;;;21.47;60.81;97948.16;8386075;28;20207;-84
2021/08/19 09:04:08;;;;;;;3.13;2.53;;;;;;;21.55;60.67;97931.72;8385560;28;20230;-84
2021/08/19 09:08:16;;;;;;;3.20;2.30;;;;;;;21.83;59.42;97937.09;8384376;28;20204;-84
2021/08/19 09:12:22;;;;;;;2.70;2.07;;;;;;;21.62;59.68;97931.97;8385257;28;20213;-84
2021/08/19 09:16:25;;;;;;;4.10;2.43;;;;;;;21.59;60.38;97933.09;8385025;28;20516;-84
2021/08/19 09:20:35;;;;;;;3.20;2.30;;;;;;;22.48;56.91;97934.63;8384947;28;20210;-84
2021/08/19 09:24:38;;;;;;;3.43;2.30;;;;;;;22.00;56.75;97925.84;8384870;28;20232;-84
2021/08/19 09:28:42;;;;;;;4.83;1.90;;;;;;;22.49;56.49;97930.22;8385231;28;20521;-82
2021/08/19 09:32:45;;;;;;;3.63;2.20;;;;;;;22.42;55.78;97917.56;8384759;28;20214;-83
2021/08/19 09:36:59;;;;;;;1.70;1.47;;;;;;;22.05;56.05;97914.88;8384932;28;20381;-83
2021/08/19 09:41:04;;;;;;;3.10;2.30;;;;;;;21.67;58.55;97921.84;8384548;28;20230;-84
2021/08/19 09:45:18;;;;;;;2.60;2.40;;;;;;;21.36;59.52;97931.63;8384184;28;20235;-84
2021/08/19 09:49:23;;;;;;;2.83;2.53;;;;;;;21.23;61.50;97935.38;8384263;28;20211;-84
2021/08/19 09:53:27;;;;;;;3.07;2.37;;;;;;;21.07;61.77;97935.06;8384704;28;20207;-84
2021/08/19 09:57:34;;;;;;;4.10;2.00;;;;;;;20.87;61.54;97932.38;8383785;28;20210;-83
2021/08/19 10:01:36;;;;;;;2.00;1.80;;;;;;;21.13;61.47;97934.50;8383725;28;20207;-83
2021/08/19 10:05:39;;;;;;;2.00;1.60;;;;;;;21.31;61.01;97931.22;8383702;28;20298;-83
2021/08/19 10:09:43;;;;;;;2.07;1.67;;;;;;;21.46;60.12;97930.72;8383802;28;20210;-84
2021/08/19 10:13:47;;;;;;;2.00;1.67;;;;;;;21.80;58.34;97924.19;8383670;28;20390;-83
2021/08/19 10:17:52;;;;;;;2.07;1.63;;;;;;;22.51;56.85;97925.63;8383293;28;20385;-83
2021/08/19 10:22:00;;;;;;;1.70;1.30;;;;;;;22.49;56.52;97920.47;8383447;28;20200;-83
2021/08/19 10:26:19;;;;;;;2.40;1.50;;;;;;;22.75;55.90;97923.28;8383154;28;20247;-83
2021/08/19 10:30:23;;;;;;;2.50;2.03;;;;;;;22.78;53.98;97914.25;8383559;28;20210;-83
2021/08/19 10:34:57;;;;;;;2.43;1.73;;;;;;;22.47;54.88;97916.34;8383507;28;20203;-84
2021/08/19 10:39:26;;;;;;;1.63;1.40;;;;;;;22.11;54.05;97910.84;8382609;28;20230;-84
2021/08/19 10:43:39;;;;;;;1.70;1.50;;;;;;;21.90;54.60;97914.47;8383096;28;20206;-84
2021/08/19 10:47:43;;;;;;;2.40;1.50;;;;;;;21.71;56.11;97920.59;8382759;28;20233;-84
2021/08/19 10:51:46;;;;;;;1.67;1.50;;;;;;;21.71;54.73;97928.50;8382515;28;20209;-83
2021/08/19 10:55:50;;;;;;;2.80;1.70;;;;;;;21.78;55.18;97921.72;8382693;28;20213;-84
2021/08/19 10:59:58;;;;;;;3.33;1.80;;;;;;;21.82;55.22;97924.91;8382582;28;20206;-84
2021/08/19 11:04:00;;;;;;;2.00;1.50;;;;;;;21.93;55.10;97921.25;8382713;28;20219;-83
2021/08/19 11:08:04;;;;;;;3.57;1.50;;;;;;;22.10;54.33;97915.25;8382448;28;20231;-84
2021/08/19 11:12:08;;;;;;;1.53;1.40;;;;;;;22.04;55.15;97911.38;8382450;28;20202;-84
2021/08/19 11:16:13;;;;;;;2.87;1.57;;;;;;;21.97;54.90;97922.66;8382597;28;20203;-84
2021/08/19 11:20:24;;;;;;;4.03;1.90;;;;;;;21.83;54.95;97919.47;8382507;28;20515;-83
2021/08/19 11:24:29;;;;;;;4.20;2.00;;;;;;;21.77;55.97;97919.22;8382462;28;20491;-84
2021/08/19 11:28:37;;;;;;;1.80;1.70;;;;;;;21.86;55.54;97921.84;8381903;28;20234;-84
2021/08/19 11:32:41;;;;;;;2.00;1.70;;;;;;;21.83;56.43;97916.84;8386512;28;20200;-84
2021/08/19 11:36:44;;;;;;;2.10;1.50;;;;;;;21.69;54.42;97927.00;8388450;28;20205;-84
2021/08/19 11:40:48;;;;;;;2.03;1.43;;;;;;;21.67;54.23;97925.31;8388460;28;20415;-84
2021/08/19 11:44:51;;;;;;;3.50;1.60;;;;;;;21.62;54.12;97921.44;8388212;28;20200;-85
2021/08/19 11:48:57;;;;;;;4.60;1.70;;;;;;;21.92;54.69;97919.63;8388232;28;20494;-84
2021/08/19 11:53:01;;;;;;;1.80;1.70;;;;;;;22.11;54.46;97916.13;8388037;28;20207;-84
2021/08/19 11:57:04;;;;;;;1.70;1.60;;;;;;;22.10;53.89;97919.72;8387869;28;20203;-84
2021/08/19 12:01:08;;;;;;;1.97;1.47;;;;;;;22.37;53.59;97922.47;8387716;28;20203;-84
2021/08/19 12:05:12;;;;;;;1.70;1.27;;;;;;;22.35;52.24;97918.28;8387517;28;20242;-84
2021/08/19 12:09:16;;;;;;;2.53;1.33;;;;;;;22.47;52.48;97934.81;8387592;28;20206;-84
2021/08/19 12:13:19;;;;;;;2.47;1.40;;;;;;;22.45;51.66;97934.94;8387244;28;20211;-84
2021/08/19 12:17:22;;;;;;;1.57;1.30;;;;;;;22.42;51.15;97929.94;8387401;28;20207;-84
2021/08/19 12:21:26;;;;;;;1.30;1.20;;;;;;;22.24;52.19;97928.03;8387257;28;20202;-84
2021/08/19 12:25:29;;;;;;;2.23;1.43;;;;;;;22.25;52.07;97927.06;8387019;28;20262;-84
2021/08/19 12:29:35;;;;;;;1.83;1.50;;;;;;;22.19;53.03;97927.59;8386876;28;20207;-84
2021/08/19 12:33:40;;;;;;;3.23;2.00;;;;;;;22.18;54.34;97925.97;8387001;28;20305;-84
2021/08/19 12:37:55;;;;;;;2.77;1.53;;;;;;;22.25;53.80;97921.78;8386943;28;20239;-84
2021/08/19 12:42:07;;;;;;;3.43;1.80;;;;;;;22.27;53.53;97921.66;8386361;28;20365;-84
2021/08/19 12:46:11;;;;;;;2.33;1.47;;;;;;;22.22;54.16;97919.41;8386366;28;20429;-85
2021/08/19 12:50:18;;;;;;;2.93;1.53;;;;;;;22.09;54.16;97925.97;8386483;28;20394;-84
2021/08/19 12:54:22;;;;;;;2.33;2.00;;;;;;;21.90;54.16;97926.84;8386499;28;20200;-84
2021/08/19 12:58:30;;;;;;;2.33;1.70;;;;;;;21.76;54.57;97925.44;8386056;28;20210;-84
2021/08/19 13:02:32;;;;;;;1.90;1.77;;;;;;;21.72;56.05;97931.97;8386190;28;20210;-84
2021/08/19 13:06:35;;;;;;;4.83;2.40;;;;;;;21.54;57.24;97934.47;8385579;28;20410;-84
2021/08/19 13:10:40;;;;;;;2.27;2.07;;;;;;;21.44;58.25;97937.09;8385711;28;20203;-84
2021/08/19 13:14:42;;;;;;;2.30;2.10;;;;;;;21.35;57.51;97943.16;8385564;28;20227;-84
2021/08/19 13:18:45;;;;;;;2.27;1.70;;;;;;;21.28;57.54;97941.06;8385455;28;20486;-84
2021/08/19 13:22:48;;;;;;;2.93;1.97;;;;;;;21.18;57.91;97934.13;8385201;28;20212;-84
2021/08/19 13:26:54;;;;;;;3.00;2.00;;;;;;;21.39;57.64;97937.47;8385054;28;20223;-84
2021/08/19 13:31:01;;;;;;;2.97;1.90;;;;;;;21.44;57.06;97923.94;8384936;28;20359;-84
2021/08/19 13:35:04;;;;;;;1.40;1.30;;;;;;;21.62;57.65;97913.53;8384732;28;20493;-84
2021/08/19 13:39:06;;;;;;;2.03;1.60;;;;;;;21.71;56.31;97912.69;8384664;28;20419;-84
2021/08/19 13:43:11;;;;;;;1.83;1.60;;;;;;;21.92;55.87;97915.16;8384640;28;20505;-85
2021/08/19 13:47:13;;;;;;;3.80;1.53;;;;;;;21.91;55.00;97921.41;8384468;28;20527;-84
2021/08/19 13:51:16;;;;;;;2.00;1.40;;;;;;;21.98;54.69;97922.50;8384341;28;20199;-85
2021/08/19 13:55:19;;;;;;;3.17;1.50;;;;;;;21.84;54.45;97907.97;8383445;28;20214;-84
2021/08/19 13:59:23;;;;;;;2.00;1.50;;;;;;;21.98;54.38;97908.50;8383960;28;20525;-84
2021/08/19 14:03:26;;;;;;;1.87;1.50;;;;;;;22.10;55.10;97906.53;8383900;28;20206;-84
2021/08/19 14:07:30;;;;;;;1.97;1.73;;;;;;;22.09;53.74;97910.16;8383802;28;20238;-85
2021/08/19 14:11:33;;;;;;;1.60;1.50;;;;;;;22.17;53.83;97905.00;8383781;28;20392;-84
2021/08/19 14:15:38;;;;;;;1.83;1.60;;;;;;;22.11;54.44;97903.75;8383679;28;20393;-84
2021/08/19 14:19:41;;;;;;;2.87;1.87;;;;;;;22.08;54.27;97908.47;8383660;28;20206;-84
2021/08/19 14:23:44;;;;;;;2.40;2.00;;;;;;;21.94;54.82;97907.13;8383539;28;20390;-84
2021/08/19 14:27:47;;;;;;;3.13;2.30;;;;;;;22.04;54.73;97900.03;8383374;28;20232;-85
2021/08/19 14:31:52;;;;;;;2.63;2.10;;;;;;;21.89;54.58;97897.00;8383346;28;20498;-85
2021/08/19 14:35:55;;;;;;;1.70;1.60;;;;;;;21.91;54.34;97902.94;8383161;28;20200;-84
2021/08/19 14:39:58;;;;;;;4.00;2.13;;;;;;;21.98;54.26;97898.78;8382870;28;20252;-84
2021/08/19 14:44:01;;;;;;;2.87;2.00;;;;;;;21.93;54.23;97893.09;8383038;28;20391;-84
2021/08/19 14:48:05;;;;;;;3.50;1.90;;;;;;;22.00;54.29;97888.91;8382898;28;20227;-84
2021/08/19 14:52:08;;;;;;;3.13;2.00;;;;;;;22.06;54.25;97883.06;8382883;28;20378;-84
2021/08/19 14:56:11;;;;;;;1.90;1.60;;;;;;;22.02;54.04;97888.78;8382693;28;20381;-84
2021/08/19 15:00:14;;;;;;;3.03;2.03;;;;;;;22.21;53.65;97886.09;8382826;28;20200;-84
2021/08/19 15:04:18;;;;;;;2.77;2.00;;;;;;;22.16;53.90;97876.94;8383018;28;20227;-83
2021/08/19 15:08:21;;;;;;;4.30;2.03;;;;;;;22.02;54.31;97879.06;8389376;28;20231;-83
2021/08/19 15:12:24;;;;;;;2.97;1.90;;;;;;;22.17;53.75;97881.25;8389373;28;20203;-82
2021/08/19 15:16:27;;;;;;;2.30;1.90;;;;;;;22.18;53.71;97881.13;8389607;28;20205;-84
2021/08/19 15:20:33;;;;;;;2.40;1.83;;;;;;;22.24;53.85;97882.34;8389151;28;20214;-83
2021/08/19 15:24:35;;;;;;;2.60;2.00;;;;;;;22.18;54.19;97875.00;8389251;28;20308;-83
2021/08/19 15:28:39;;;;;;;3.00;2.43;;;;;;;22.16;54.28;97877.81;8388752;28;20234;-84
2021/08/19 15:32:42;;;;;;;2.10;1.90;;;;;;;22.34;54.24;97875.25;8388912;28;20199;-84
2021/08/19 15:36:46;;;;;;;3.67;2.00;;;;;;;22.48;54.63;97868.66;8388960;28;20214;-84
2021/08/19 15:40:49;;;;;;;2.47;1.90;;;;;;;22.67;53.22;97875.66;8388544;28;20228;-83
2021/08/19 15:44:54;;;;;;;3.47;2.00;;;;;;;22.53;53.74;97873.53;8388504;28;20278;-84
2021/08/19 15:48:57;;;;;;;4.67;2.20;;;;;;;22.47;52.81;97874.13;8388491;28;20235;-84
2021/08/19 15:53:01;;;;;;;2.37;2.17;;;;;;;22.45;53.40;97867.16;8388250;28;20200;-84
2021/08/19 15:57:05;;;;;;;2.70;2.20;;;;;;;22.55;53.62;97872.41;8388033;28;20203;-84
2021/08/19 16:01:08;;;;;;;2.20;2.00;;;;;;;22.53;54.04;97873.53;8387974;28;20206;-84
2021/08/19 16:05:11;;;;;;;5.10;2.27;;;;;;;22.41;54.08;97864.97;8387891;28;20227;-84
2021/08/19 16:09:15;;;;;;;2.83;1.90;;;;;;;22.44;53.68;97869.94;8387626;28;20227;-84
2021/08/19 16:13:18;;;;;;;3.53;2.00;;;;;;;22.37;54.70;97872.34;8387478;28;20200;-84
2021/08/19 16:17:21;;;;;;;2.90;2.30;;;;;;;22.32;54.09;97873.75;8386681;28;20204;-84
2021/08/19 16:21:24;;;;;;;3.57;2.47;;;;;;;22.24;54.51;97870.00;8387219;28;20202;-84
2021/08/19 16:25:28;;;;;;;2.97;2.33;;;;;;;22.15;54.41;97878.75;8387254;28;20200;-84
2021/08/19 16:29:31;;;;;;;2.30;1.97;;;;;;;22.14;54.87;97870.97;8387195;28;20227;-84
2021/08/19 16:33:34;;;;;;;2.47;2.10;;;;;;;22.13;54.93;97871.97;8387033;28;20200;-84
2021/08/19 16:37:36;;;;;;;2.90;2.30;;;;;;;22.10;55.00;97872.25;8386587;28;20214;-84
2021/08/19 16:41:41;;;;;;;3.53;2.17;;;;;;;22.05;55.31;97873.50;8387065;28;20199;-84
2021/08/19 16:45:44;;;;;;;3.40;2.33;;;;;;;22.08;55.46;97872.38;8386398;28;20207;-84
2021/08/19 16:49:48;;;;;;;3.30;2.43;;;;;;;22.00;55.88;97867.00;8386357;28;20227;-84
2021/08/19 16:53:50;;;;;;;3.40;2.30;;;;;;;22.06;55.95;97871.69;8386536;28;20206;-84
2021/08/19 16:57:55;;;;;;;2.43;2.10;;;;;;;22.07;55.74;97870.75;8386073;28;20203;-84
2021/08/19 17:01:57;;;;;;;2.43;2.20;;;;;;;22.00;56.36;97865.19;8386094;28;20200;-84
2021/08/19 17:06:00;;;;;;;3.03;2.57;;;;;;;21.99;55.93;97863.53;8385649;28;20294;-84
2021/08/19 17:10:04;;;;;;;2.87;2.20;;;;;;;21.98;56.25;97866.31;8385753;28;20231;-84
2021/08/19 17:14:08;;;;;;;2.17;1.93;;;;;;;21.93;56.54;97864.09;8385755;28;20203;-84
2021/08/19 17:18:12;;;;;;;4.43;2.33;;;;;;;21.88;56.90;97868.97;8385323;28;20214;-84
2021/08/19 17:22:15;;;;;;;2.93;2.00;;;;;;;21.90;57.14;97867.03;8385420;28;20215;-84
2021/08/19 17:26:18;;;;;;;2.73;2.37;;;;;;;21.84;57.12;97867.59;8385136;28;20215;-84
2021/08/19 17:30:22;;;;;;;4.70;2.57;;;;;;;21.81;56.93;97866.06;8383868;28;20226;-85
2021/08/19 17:34:25;;;;;;;4.40;2.50;;;;;;;21.75;56.64;97858.72;8384898;28;20211;-84
2021/08/19 17:38:28;;;;;;;3.10;2.50;;;;;;;21.72;56.80;97860.81;8385046;28;20231;-84
2021/08/19 17:42:31;;;;;;;3.97;3.57;;;;;;;21.69;56.48;97861.94;8384783;28;20415;-84
2021/08/19 17:46:35;;;;;;;2.77;2.57;;;;;;;21.72;56.46;97864.28;8384353;28;20203;-84
2021/08/19 17:50:38;;;;;;;4.70;4.17;;;;;;;21.72;56.72;97864.28;8384372;28;20507;-84
2021/08/19 17:54:40;;;;;;;9.70;5.57;;;;;;;21.66;56.56;97856.94;8384380;28;20232;-84
2021/08/19 17:58:44;;;;;;;7.23;6.27;;;;;;;21.64;56.20;97853.59;8384253;28;20509;-85
2021/08/19 18:02:49;;;;;;;6.60;5.60;;;;;;;21.61;56.60;97861.78;8384264;28;20210;-84
2021/08/19 18:06:53;;;;;;;8.53;5.50;;;;;;;21.62;56.83;97853.75;8383868;28;20227;-84
2021/08/19 18:10:55;;;;;;;5.13;4.13;;;;;;;21.60;56.85;97857.50;8383801;28;20229;-84
2021/08/19 18:14:58;;;;;;;3.37;2.67;;;;;;;21.55;56.63;97857.09;8383726;28;20357;-85
2021/08/19 18:19:02;;;;;;;3.00;2.70;;;;;;;21.57;56.95;97857.78;8383746;28;20214;-84
2021/08/19 18:23:05;;;;;;;3.80;2.50;;;;;;;21.54;56.92;97863.34;8383713;28;20201;-85
2021/08/19 18:27:08;;;;;;;3.53;2.47;;;;;;;21.48;56.85;97864.72;8383529;28;20202;-84
2021/08/19 18:31:11;;;;;;;4.83;2.57;;;;;;;21.46;56.77;97874.56;8383334;28;20368;-84
2021/08/19 18:35:16;;;;;;;2.83;2.43;;;;;;;21.44;56.63;97866.81;8383208;28;20266;-84
2021/08/19 18:39:19;;;;;;;4.40;2.60;;;;;;;21.37;57.11;97878.00;8382920;28;20238;-85
2021/08/19 18:43:22;;;;;;;3.50;2.50;;;;;;;21.40;56.22;97878.56;8383107;28;20207;-84
2021/08/19 18:47:25;;;;;;;2.83;2.47;;;;;;;21.42;56.88;97884.53;8383133;28;20201;-84
2021/08/19 18:51:29;;;;;;;2.63;2.33;;;;;;;21.37;56.56;97883.28;8383002;28;20209;-84
2021/08/19 18:55:31;;;;;;;2.67;2.23;;;;;;;21.37;56.44;97891.16;8382829;28;20517;-84
2021/08/19 18:59:34;;;;;;;2.80;2.50;;;;;;;21.35;56.10;97893.94;8382831;28;20205;-84
2021/08/19 19:03:37;;;;;;;3.20;2.43;;;;;;;21.33;56.69;97902.97;8382791;28;20207;-84
2021/08/19 19:07:41;;;;;;;2.63;2.40;;;;;;;21.26;56.61;97897.38;8382587;28;20205;-84